sensor_id;sensor_type;location;lat;lon;timestamp;pressure;altitude;pressure_sealevel;temperature;humidity
54872;BME280;43914;57.680;11.982;2024-03-17T00:00:41;100999.23;;;-0.48;100.00
54872;BME280;43914;57.680;11.982;2024-03-17T00:03:07;101005.29;;;-0.49;100.00
54872;BME280;43914;57.680;11.982;2024-03-17T00:05:36;101014.92;;;-0.48;100.00
54872;BME280;43914;57.680;11.982;2024-03-17T00:08:02;101017.29;;;-0.49;100.00
54872;BME280;43914;57.680;11.982;2024-03-17T00:10:31;101025.51;;;-0.51;100.00
54872;BME280;43914;57.680;11.982;2024-03-17T00:12:56;101034.23;;;-0.52;100.00
54872;BME280;43914;57.680;11.982;2024-03-17T00:15:23;101036.48;;;-0.54;100.00
54872;BME280;43914;57.680;11.982;2024-03-17T00:17:48;101043.64;;;-0.56;100.00
54872;BME280;43914;57.680;11.982;2024-03-17T00:20:14;101048.95;;;-0.56;100.00
54872;BME280;43914;57.680;11.982;2024-03-17T00:22:49;101053.36;;;-0.57;100.00
54872;BME280;43914;57.680;11.982;2024-03-17T00:25:16;101060.96;;;-0.57;100.00
54872;BME280;43914;57.680;11.982;2024-03-17T00:27:43;101057.71;;;-0.59;100.00
54872;BME280;43914;57.680;11.982;2024-03-17T00:30:11;101058.30;;;-0.57;100.00
54872;BME280;43914;57.680;11.982;2024-03-17T00:32:41;101064.48;;;-0.57;100.00
54872;BME280;43914;57.680;11.982;2024-03-17T00:35:07;101062.16;;;-0.57;100.00
54872;BME280;43914;57.680;11.982;2024-03-17T00:37:34;101072.48;;;-0.56;100.00
54872;BME280;43914;57.680;11.982;2024-03-17T00:40:01;101070.17;;;-0.55;100.00
54872;BME280;43914;57.680;11.982;2024-03-17T00:42:27;101076.79;;;-0.54;100.00
54872;BME280;43914;57.680;11.982;2024-03-17T00:44:53;101080.98;;;-0.56;100.00
54872;BME280;43914;57.680;11.982;2024-03-17T00:47:18;101086.29;;;-0.57;100.00
54872;BME280;43914;57.680;11.982;2024-03-17T00:49:44;101094.08;;;-0.58;100.00
54872;BME280;43914;57.680;11.982;2024-03-17T00:52:09;101095.41;;;-0.60;100.00
54872;BME280;43914;57.680;11.982;2024-03-17T00:54:34;101096.09;;;-0.62;100.00
54872;BME280;43914;57.680;11.982;2024-03-17T00:57:00;101101.90;;;-0.62;100.00
54872;BME280;43914;57.680;11.982;2024-03-17T00:59:27;101098.62;;;-0.63;100.00
54872;BME280;43914;57.680;11.982;2024-03-17T01:01:52;101105.05;;;-0.64;100.00
54872;BME280;43914;57.680;11.982;2024-03-17T01:04:18;101105.04;;;-0.67;100.00
54872;BME280;43914;57.680;11.982;2024-03-17T01:06:43;101098.80;;;-0.68;100.00
54872;BME280;43914;57.680;11.982;2024-03-17T01:09:09;101105.85;;;-0.66;100.00
54872;BME280;43914;57.680;11.982;2024-03-17T01:11:35;101110.65;;;-0.66;100.00
54872;BME280;43914;57.680;11.982;2024-03-17T01:14:00;101112.40;;;-0.66;100.00
54872;BME280;43914;57.680;11.982;2024-03-17T01:16:26;101120.27;;;-0.65;100.00
54872;BME280;43914;57.680;11.982;2024-03-17T01:18:53;101120.17;;;-0.67;100.00
54872;BME280;43914;57.680;11.982;2024-03-17T01:21:20;101117.24;;;-0.70;100.00
54872;BME280;43914;57.680;11.982;2024-03-17T01:23:48;101122.19;;;-0.70;100.00
54872;BME280;43914;57.680;11.982;2024-03-17T01:26:13;101124.59;;;-0.69;100.00
54872;BME280;43914;57.680;11.982;2024-03-17T01:28:39;101123.84;;;-0.69;100.00
54872;BME280;43914;57.680;11.982;2024-03-17T01:31:07;101121.92;;;-0.69;100.00
54872;BME280;43914;57.680;11.982;2024-03-17T01:33:33;101121.02;;;-0.72;100.00
54872;BME280;43914;57.680;11.982;2024-03-17T01:35:58;101119.41;;;-0.74;100.00
54872;BME280;43914;57.680;11.982;2024-03-17T01:38:24;101127.09;;;-0.75;100.00
54872;BME280;43914;57.680;11.982;2024-03-17T01:40:49;101133.65;;;-0.76;100.00
54872;BME280;43914;57.680;11.982;2024-03-17T01:43:14;101131.02;;;-0.76;100.00
54872;BME280;43914;57.680;11.982;2024-03-17T01:45:40;101137.84;;;-0.76;100.00
54872;BME280;43914;57.680;11.982;2024-03-17T01:48:15;101141.17;;;-0.76;100.00
54872;BME280;43914;57.680;11.982;2024-03-17T01:50:43;101146.65;;;-0.79;100.00
54872;BME280;43914;57.680;11.982;2024-03-17T01:53:11;101151.17;;;-0.83;100.00
54872;BME280;43914;57.680;11.982;2024-03-17T01:55:40;101154.25;;;-0.88;100.00
54872;BME280;43914;57.680;11.982;2024-03-17T01:58:07;101155.11;;;-0.93;100.00
54872;BME280;43914;57.680;11.982;2024-03-17T02:00:34;101151.41;;;-0.98;100.00
54872;BME280;43914;57.680;11.982;2024-03-17T02:03:06;101156.84;;;-1.03;100.00
54872;BME280;43914;57.680;11.982;2024-03-17T02:05:35;101154.38;;;-1.09;100.00
54872;BME280;43914;57.680;11.982;2024-03-17T02:08:07;101152.58;;;-1.16;100.00
54872;BME280;43914;57.680;11.982;2024-03-17T02:10:33;101163.41;;;-1.21;100.00
54872;BME280;43914;57.680;11.982;2024-03-17T02:13:00;101164.92;;;-1.26;100.00
54872;BME280;43914;57.680;11.982;2024-03-17T02:15:26;101170.67;;;-1.30;100.00
54872;BME280;43914;57.680;11.982;2024-03-17T02:17:52;101176.02;;;-1.34;100.00
54872;BME280;43914;57.680;11.982;2024-03-17T02:20:17;101173.52;;;-1.39;100.00
54872;BME280;43914;57.680;11.982;2024-03-17T02:22:43;101179.70;;;-1.43;100.00
54872;BME280;43914;57.680;11.982;2024-03-17T02:25:09;101184.58;;;-1.45;100.00
54872;BME280;43914;57.680;11.982;2024-03-17T02:27:37;101188.69;;;-1.49;100.00
54872;BME280;43914;57.680;11.982;2024-03-17T02:30:03;101197.14;;;-1.52;100.00
54872;BME280;43914;57.680;11.982;2024-03-17T02:32:34;101201.17;;;-1.55;100.00
54872;BME280;43914;57.680;11.982;2024-03-17T02:34:59;101206.02;;;-1.57;100.00
54872;BME280;43914;57.680;11.982;2024-03-17T02:37:25;101210.92;;;-1.59;100.00
54872;BME280;43914;57.680;11.982;2024-03-17T02:39:50;101211.34;;;-1.60;100.00
54872;BME280;43914;57.680;11.982;2024-03-17T02:42:16;101217.08;;;-1.62;100.00
54872;BME280;43914;57.680;11.982;2024-03-17T02:44:41;101216.16;;;-1.65;100.00
54872;BME280;43914;57.680;11.982;2024-03-17T02:47:07;101223.20;;;-1.67;100.00
54872;BME280;43914;57.680;11.982;2024-03-17T02:49:34;101224.73;;;-1.69;100.00
54872;BME280;43914;57.680;11.982;2024-03-17T02:52:06;101227.81;;;-1.71;100.00
54872;BME280;43914;57.680;11.982;2024-03-17T02:54:32;101229.47;;;-1.73;100.00
54872;BME280;43914;57.680;11.982;2024-03-17T02:57:00;101233.95;;;-1.75;100.00
54872;BME280;43914;57.680;11.982;2024-03-17T02:59:26;101235.11;;;-1.76;100.00
54872;BME280;43914;57.680;11.982;2024-03-17T03:01:52;101234.33;;;-1.78;100.00
54872;BME280;43914;57.680;11.982;2024-03-17T03:04:18;101236.80;;;-1.78;100.00
54872;BME280;43914;57.680;11.982;2024-03-17T03:06:43;101241.32;;;-1.80;100.00
54872;BME280;43914;57.680;11.982;2024-03-17T03:09:09;101240.91;;;-1.82;100.00
54872;BME280;43914;57.680;11.982;2024-03-17T03:11:46;101247.34;;;-1.84;100.00
54872;BME280;43914;57.680;11.982;2024-03-17T03:14:12;101250.96;;;-1.85;100.00
54872;BME280;43914;57.680;11.982;2024-03-17T03:16:38;101254.60;;;-1.88;100.00
54872;BME280;43914;57.680;11.982;2024-03-17T03:19:04;101263.07;;;-1.89;100.00
54872;BME280;43914;57.680;11.982;2024-03-17T03:21:31;101269.11;;;-1.90;100.00
54872;BME280;43914;57.680;11.982;2024-03-17T03:23:57;101270.81;;;-1.92;100.00
54872;BME280;43914;57.680;11.982;2024-03-17T03:26:22;101274.22;;;-1.93;100.00
54872;BME280;43914;57.680;11.982;2024-03-17T03:28:48;101276.60;;;-1.95;100.00
54872;BME280;43914;57.680;11.982;2024-03-17T03:31:15;101278.64;;;-1.96;100.00
54872;BME280;43914;57.680;11.982;2024-03-17T03:33:41;101284.20;;;-1.98;100.00
54872;BME280;43914;57.680;11.982;2024-03-17T03:36:11;101288.54;;;-2.00;100.00
54872;BME280;43914;57.680;11.982;2024-03-17T03:38:36;101286.00;;;-2.02;100.00
54872;BME280;43914;57.680;11.982;2024-03-17T03:41:10;101283.31;;;-2.05;100.00
54872;BME280;43914;57.680;11.982;2024-03-17T03:43:36;101282.58;;;-2.07;100.00
54872;BME280;43914;57.680;11.982;2024-03-17T03:46:02;101291.58;;;-2.08;100.00
54872;BME280;43914;57.680;11.982;2024-03-17T03:48:28;101292.04;;;-2.10;100.00
54872;BME280;43914;57.680;11.982;2024-03-17T03:50:54;101295.15;;;-2.12;100.00
54872;BME280;43914;57.680;11.982;2024-03-17T03:53:20;101296.20;;;-2.12;100.00
54872;BME280;43914;57.680;11.982;2024-03-17T03:55:46;101299.33;;;-2.14;100.00
54872;BME280;43914;57.680;11.982;2024-03-17T03:58:11;101301.52;;;-2.16;100.00
54872;BME280;43914;57.680;11.982;2024-03-17T04:00:38;101305.73;;;-2.19;100.00
54872;BME280;43914;57.680;11.982;2024-03-17T04:03:05;101312.78;;;-2.20;100.00
54872;BME280;43914;57.680;11.982;2024-03-17T04:05:31;101317.95;;;-2.21;100.00
54872;BME280;43914;57.680;11.982;2024-03-17T04:07:57;101323.44;;;-2.22;100.00
54872;BME280;43914;57.680;11.982;2024-03-17T04:10:23;101323.66;;;-2.23;100.00
54872;BME280;43914;57.680;11.982;2024-03-17T04:12:51;101323.05;;;-2.24;100.00
54872;BME280;43914;57.680;11.982;2024-03-17T04:15:17;101318.57;;;-2.29;100.00
54872;BME280;43914;57.680;11.982;2024-03-17T04:17:42;101329.25;;;-2.25;100.00
54872;BME280;43914;57.680;11.982;2024-03-17T04:20:08;101334.11;;;-2.27;100.00
54872;BME280;43914;57.680;11.982;2024-03-17T04:22:36;101339.93;;;-2.28;100.00
54872;BME280;43914;57.680;11.982;2024-03-17T04:25:02;101346.00;;;-2.30;100.00
54872;BME280;43914;57.680;11.982;2024-03-17T04:27:29;101346.06;;;-2.31;100.00
54872;BME280;43914;57.680;11.982;2024-03-17T04:29:59;101349.44;;;-2.31;100.00
54872;BME280;43914;57.680;11.982;2024-03-17T04:32:25;101352.75;;;-2.34;100.00
54872;BME280;43914;57.680;11.982;2024-03-17T04:34:53;101357.79;;;-2.37;100.00
54872;BME280;43914;57.680;11.982;2024-03-17T04:37:19;101364.02;;;-2.38;100.00
54872;BME280;43914;57.680;11.982;2024-03-17T04:39:46;101366.61;;;-2.40;100.00
54872;BME280;43914;57.680;11.982;2024-03-17T04:42:13;101374.17;;;-2.41;100.00
54872;BME280;43914;57.680;11.982;2024-03-17T04:44:40;101378.69;;;-2.43;100.00
54872;BME280;43914;57.680;11.982;2024-03-17T04:47:06;101383.52;;;-2.45;100.00
54872;BME280;43914;57.680;11.982;2024-03-17T04:49:35;101389.24;;;-2.47;100.00
54872;BME280;43914;57.680;11.982;2024-03-17T04:52:00;101402.80;;;-2.48;100.00
54872;BME280;43914;57.680;11.982;2024-03-17T04:54:26;101414.58;;;-2.48;100.00
54872;BME280;43914;57.680;11.982;2024-03-17T04:56:51;101417.64;;;-2.50;100.00
54872;BME280;43914;57.680;11.982;2024-03-17T04:59:17;101420.88;;;-2.51;100.00
54872;BME280;43914;57.680;11.982;2024-03-17T05:01:42;101419.09;;;-2.54;100.00
54872;BME280;43914;57.680;11.982;2024-03-17T05:04:08;101425.70;;;-2.56;100.00
54872;BME280;43914;57.680;11.982;2024-03-17T05:06:36;101429.80;;;-2.58;100.00
54872;BME280;43914;57.680;11.982;2024-03-17T05:09:02;101438.23;;;-2.57;100.00
54872;BME280;43914;57.680;11.982;2024-03-17T05:11:30;101442.87;;;-2.59;100.00
54872;BME280;43914;57.680;11.982;2024-03-17T05:13:55;101453.03;;;-2.58;100.00
54872;BME280;43914;57.680;11.982;2024-03-17T05:16:22;101454.29;;;-2.59;100.00
54872;BME280;43914;57.680;11.982;2024-03-17T05:18:49;101459.58;;;-2.60;100.00
54872;BME280;43914;57.680;11.982;2024-03-17T05:21:14;101464.03;;;-2.61;100.00
54872;BME280;43914;57.680;11.982;2024-03-17T05:23:40;101466.54;;;-2.62;100.00
54872;BME280;43914;57.680;11.982;2024-03-17T05:26:05;101468.90;;;-2.64;100.00
54872;BME280;43914;57.680;11.982;2024-03-17T05:28:31;101472.92;;;-2.64;100.00
54872;BME280;43914;57.680;11.982;2024-03-17T05:30:57;101475.91;;;-2.64;100.00
54872;BME280;43914;57.680;11.982;2024-03-17T05:33:24;101477.16;;;-2.64;100.00
54872;BME280;43914;57.680;11.982;2024-03-17T05:35:58;101481.06;;;-2.65;100.00
54872;BME280;43914;57.680;11.982;2024-03-17T05:38:26;101488.45;;;-2.65;100.00
54872;BME280;43914;57.680;11.982;2024-03-17T05:41:03;101493.91;;;-2.66;100.00
54872;BME280;43914;57.680;11.982;2024-03-17T05:43:34;101501.60;;;-2.66;100.00
54872;BME280;43914;57.680;11.982;2024-03-17T05:46:07;101503.36;;;-2.65;100.00
54872;BME280;43914;57.680;11.982;2024-03-17T05:48:34;101510.16;;;-2.65;100.00
54872;BME280;43914;57.680;11.982;2024-03-17T05:51:03;101515.77;;;-2.64;100.00
54872;BME280;43914;57.680;11.982;2024-03-17T05:53:29;101518.78;;;-2.62;100.00
54872;BME280;43914;57.680;11.982;2024-03-17T05:55:58;101523.92;;;-2.59;100.00
54872;BME280;43914;57.680;11.982;2024-03-17T05:58:24;101525.56;;;-2.56;100.00
54872;BME280;43914;57.680;11.982;2024-03-17T06:00:49;101527.27;;;-2.55;100.00
54872;BME280;43914;57.680;11.982;2024-03-17T06:03:15;101530.58;;;-2.56;100.00
54872;BME280;43914;57.680;11.982;2024-03-17T06:05:40;101540.13;;;-2.50;100.00
54872;BME280;43914;57.680;11.982;2024-03-17T06:08:07;101545.35;;;-2.49;100.00
54872;BME280;43914;57.680;11.982;2024-03-17T06:10:36;101541.61;;;-2.48;100.00
54872;BME280;43914;57.680;11.982;2024-03-17T06:13:02;101543.91;;;-2.49;100.00
54872;BME280;43914;57.680;11.982;2024-03-17T06:15:28;101545.33;;;-2.45;100.00
54872;BME280;43914;57.680;11.982;2024-03-17T06:17:54;101545.11;;;-2.41;100.00
54872;BME280;43914;57.680;11.982;2024-03-17T06:20:22;101547.73;;;-2.38;100.00
54872;BME280;43914;57.680;11.982;2024-03-17T06:22:49;101548.34;;;-2.36;100.00
54872;BME280;43914;57.680;11.982;2024-03-17T06:25:15;101557.98;;;-2.35;100.00
54872;BME280;43914;57.680;11.982;2024-03-17T06:27:40;101566.01;;;-2.35;100.00
54872;BME280;43914;57.680;11.982;2024-03-17T06:30:11;101567.90;;;-2.34;100.00
54872;BME280;43914;57.680;11.982;2024-03-17T06:32:40;101574.17;;;-2.29;100.00
54872;BME280;43914;57.680;11.982;2024-03-17T06:35:07;101575.36;;;-2.25;100.00
54872;BME280;43914;57.680;11.982;2024-03-17T06:37:33;101581.28;;;-2.21;100.00
54872;BME280;43914;57.680;11.982;2024-03-17T06:39:58;101585.51;;;-2.18;100.00
54872;BME280;43914;57.680;11.982;2024-03-17T06:42:24;101590.92;;;-2.14;100.00
54872;BME280;43914;57.680;11.982;2024-03-17T06:44:49;101592.97;;;-2.09;100.00
54872;BME280;43914;57.680;11.982;2024-03-17T06:47:14;101598.48;;;-2.04;100.00
54872;BME280;43914;57.680;11.982;2024-03-17T06:49:40;101599.44;;;-2.02;100.00
54872;BME280;43914;57.680;11.982;2024-03-17T06:52:05;101601.38;;;-1.98;100.00
54872;BME280;43914;57.680;11.982;2024-03-17T06:54:31;101601.91;;;-1.95;100.00
54872;BME280;43914;57.680;11.982;2024-03-17T06:56:59;101603.19;;;-1.90;100.00
54872;BME280;43914;57.680;11.982;2024-03-17T06:59:25;101610.66;;;-1.85;100.00
54872;BME280;43914;57.680;11.982;2024-03-17T07:01:50;101614.95;;;-1.80;100.00
54872;BME280;43914;57.680;11.982;2024-03-17T07:04:16;101617.45;;;-1.80;100.00
54872;BME280;43914;57.680;11.982;2024-03-17T07:06:42;101619.73;;;-1.77;100.00
54872;BME280;43914;57.680;11.982;2024-03-17T07:09:08;101628.48;;;-1.73;100.00
54872;BME280;43914;57.680;11.982;2024-03-17T07:11:34;101627.85;;;-1.70;100.00
54872;BME280;43914;57.680;11.982;2024-03-17T07:14:00;101629.15;;;-1.68;100.00
54872;BME280;43914;57.680;11.982;2024-03-17T07:16:25;101626.64;;;-1.68;100.00
54872;BME280;43914;57.680;11.982;2024-03-17T07:18:52;101631.76;;;-1.65;100.00
54872;BME280;43914;57.680;11.982;2024-03-17T07:21:21;101623.33;;;-1.66;100.00
54872;BME280;43914;57.680;11.982;2024-03-17T07:23:47;101629.88;;;-1.63;100.00
54872;BME280;43914;57.680;11.982;2024-03-17T07:26:12;101628.15;;;-1.60;100.00
54872;BME280;43914;57.680;11.982;2024-03-17T07:28:39;101634.48;;;-1.57;100.00
54872;BME280;43914;57.680;11.982;2024-03-17T07:31:10;101631.88;;;-1.54;100.00
54872;BME280;43914;57.680;11.982;2024-03-17T07:33:37;101638.41;;;-1.51;100.00
54872;BME280;43914;57.680;11.982;2024-03-17T07:36:02;101640.69;;;-1.51;100.00
54872;BME280;43914;57.680;11.982;2024-03-17T07:38:30;101639.48;;;-1.48;100.00
54872;BME280;43914;57.680;11.982;2024-03-17T07:41:02;101637.95;;;-1.47;100.00
54872;BME280;43914;57.680;11.982;2024-03-17T07:43:29;101635.89;;;-1.44;100.00
54872;BME280;43914;57.680;11.982;2024-03-17T07:48:35;101638.84;;;-1.40;100.00
54872;BME280;43914;57.680;11.982;2024-03-17T07:51:07;101637.95;;;-1.36;100.00
54872;BME280;43914;57.680;11.982;2024-03-17T07:53:34;101641.24;;;-1.33;100.00
54872;BME280;43914;57.680;11.982;2024-03-17T07:58:27;101644.81;;;-1.27;100.00
54872;BME280;43914;57.680;11.982;2024-03-17T08:00:57;101650.70;;;-1.22;100.00
54872;BME280;43914;57.680;11.982;2024-03-17T08:03:30;101658.32;;;-1.20;100.00
54872;BME280;43914;57.680;11.982;2024-03-17T08:05:57;101664.11;;;-1.20;100.00
54872;BME280;43914;57.680;11.982;2024-03-17T08:08:31;101666.85;;;-1.18;100.00
54872;BME280;43914;57.680;11.982;2024-03-17T08:10:57;101674.64;;;-1.16;100.00
54872;BME280;43914;57.680;11.982;2024-03-17T08:13:23;101677.04;;;-1.15;100.00
54872;BME280;43914;57.680;11.982;2024-03-17T08:15:56;101678.50;;;-1.12;100.00
54872;BME280;43914;57.680;11.982;2024-03-17T08:18:22;101681.64;;;-1.09;100.00
54872;BME280;43914;57.680;11.982;2024-03-17T08:20:48;101685.25;;;-1.04;100.00
54872;BME280;43914;57.680;11.982;2024-03-17T08:23:13;101691.63;;;-0.98;100.00
54872;BME280;43914;57.680;11.982;2024-03-17T08:25:39;101689.80;;;-0.94;100.00
54872;BME280;43914;57.680;11.982;2024-03-17T08:28:06;101688.98;;;-0.92;100.00
54872;BME280;43914;57.680;11.982;2024-03-17T08:30:34;101691.65;;;-0.89;100.00
54872;BME280;43914;57.680;11.982;2024-03-17T08:33:00;101692.60;;;-0.88;100.00
54872;BME280;43914;57.680;11.982;2024-03-17T08:35:26;101689.41;;;-0.84;100.00
54872;BME280;43914;57.680;11.982;2024-03-17T08:37:52;101692.91;;;-0.77;100.00
54872;BME280;43914;57.680;11.982;2024-03-17T08:40:21;101690.56;;;-0.70;100.00
54872;BME280;43914;57.680;11.982;2024-03-17T08:42:49;101685.64;;;-0.67;100.00
54872;BME280;43914;57.680;11.982;2024-03-17T08:45:15;101693.32;;;-0.66;100.00
54872;BME280;43914;57.680;11.982;2024-03-17T08:47:41;101695.40;;;-0.62;100.00
54872;BME280;43914;57.680;11.982;2024-03-17T08:50:07;101694.73;;;-0.56;100.00
54872;BME280;43914;57.680;11.982;2024-03-17T08:52:36;101699.96;;;-0.52;100.00
54872;BME280;43914;57.680;11.982;2024-03-17T08:55:02;101697.23;;;-0.51;100.00
54872;BME280;43914;57.680;11.982;2024-03-17T08:57:35;101697.70;;;-0.50;100.00
54872;BME280;43914;57.680;11.982;2024-03-17T09:00:01;101698.57;;;-0.47;100.00
54872;BME280;43914;57.680;11.982;2024-03-17T09:02:27;101696.11;;;-0.46;100.00
54872;BME280;43914;57.680;11.982;2024-03-17T09:04:52;101698.35;;;-0.42;100.00
54872;BME280;43914;57.680;11.982;2024-03-17T09:07:17;101700.34;;;-0.40;100.00
54872;BME280;43914;57.680;11.982;2024-03-17T09:09:43;101698.75;;;-0.37;100.00
54872;BME280;43914;57.680;11.982;2024-03-17T09:12:09;101700.69;;;-0.31;100.00
54872;BME280;43914;57.680;11.982;2024-03-17T09:14:35;101701.70;;;-0.27;100.00
54872;BME280;43914;57.680;11.982;2024-03-17T09:17:00;101700.05;;;-0.23;100.00
54872;BME280;43914;57.680;11.982;2024-03-17T09:19:26;101701.60;;;-0.22;100.00
54872;BME280;43914;57.680;11.982;2024-03-17T09:21:54;101699.46;;;-0.22;100.00
54872;BME280;43914;57.680;11.982;2024-03-17T09:24:20;101696.37;;;-0.20;100.00
54872;BME280;43914;57.680;11.982;2024-03-17T09:26:46;101691.61;;;-0.18;100.00
54872;BME280;43914;57.680;11.982;2024-03-17T09:29:12;101691.14;;;-0.12;100.00
54872;BME280;43914;57.680;11.982;2024-03-17T09:31:38;101690.42;;;-0.06;100.00
54872;BME280;43914;57.680;11.982;2024-03-17T09:34:07;101693.63;;;-0.01;100.00
54872;BME280;43914;57.680;11.982;2024-03-17T09:36:32;101692.36;;;0.03;100.00
54872;BME280;43914;57.680;11.982;2024-03-17T09:38:57;101688.48;;;0.03;100.00
54872;BME280;43914;57.680;11.982;2024-03-17T09:41:24;101690.83;;;0.08;100.00
54872;BME280;43914;57.680;11.982;2024-03-17T09:43:55;101690.55;;;0.12;100.00
54872;BME280;43914;57.680;11.982;2024-03-17T09:46:24;101692.61;;;0.17;100.00
54872;BME280;43914;57.680;11.982;2024-03-17T09:48:55;101692.89;;;0.18;100.00
54872;BME280;43914;57.680;11.982;2024-03-17T09:51:22;101691.17;;;0.20;100.00
54872;BME280;43914;57.680;11.982;2024-03-17T09:53:48;101697.48;;;0.24;100.00
54872;BME280;43914;57.680;11.982;2024-03-17T09:56:18;101699.80;;;0.26;100.00
54872;BME280;43914;57.680;11.982;2024-03-17T09:58:45;101705.54;;;0.30;100.00
54872;BME280;43914;57.680;11.982;2024-03-17T10:01:11;101708.86;;;0.34;100.00
54872;BME280;43914;57.680;11.982;2024-03-17T10:03:51;101708.11;;;0.37;100.00
54872;BME280;43914;57.680;11.982;2024-03-17T10:06:19;101707.44;;;0.42;100.00
54872;BME280;43914;57.680;11.982;2024-03-17T10:08:48;101709.46;;;0.47;100.00
54872;BME280;43914;57.680;11.982;2024-03-17T10:11:19;101708.85;;;0.51;100.00
54872;BME280;43914;57.680;11.982;2024-03-17T10:13:47;101710.62;;;0.54;100.00
54872;BME280;43914;57.680;11.982;2024-03-17T10:16:25;101717.27;;;0.61;100.00
54872;BME280;43914;57.680;11.982;2024-03-17T10:19:07;101721.91;;;0.69;100.00
54872;BME280;43914;57.680;11.982;2024-03-17T10:21:33;101736.74;;;0.80;100.00
54872;BME280;43914;57.680;11.982;2024-03-17T10:24:12;101736.59;;;0.85;100.00
54872;BME280;43914;57.680;11.982;2024-03-17T10:26:50;101738.03;;;0.91;100.00
54872;BME280;43914;57.680;11.982;2024-03-17T10:29:33;101733.85;;;0.95;100.00
54872;BME280;43914;57.680;11.982;2024-03-17T10:34:31;101741.45;;;1.03;99.97
54872;BME280;43914;57.680;11.982;2024-03-17T10:39:38;101750.60;;;1.18;99.24
54872;BME280;43914;57.680;11.982;2024-03-17T10:42:06;101745.96;;;1.22;96.59
54872;BME280;43914;57.680;11.982;2024-03-17T10:44:32;101743.15;;;1.27;95.82
54872;BME280;43914;57.680;11.982;2024-03-17T10:47:07;101740.61;;;1.34;93.42
54872;BME280;43914;57.680;11.982;2024-03-17T10:49:40;101738.61;;;1.42;94.16
54872;BME280;43914;57.680;11.982;2024-03-17T10:52:16;101737.59;;;1.50;92.59
54872;BME280;43914;57.680;11.982;2024-03-17T10:57:32;101738.14;;;1.69;89.22
54872;BME280;43914;57.680;11.982;2024-03-17T11:00:04;101736.23;;;1.74;90.16
54872;BME280;43914;57.680;11.982;2024-03-17T11:02:31;101732.02;;;1.82;91.96
54872;BME280;43914;57.680;11.982;2024-03-17T11:05:13;101730.98;;;1.86;90.09
54872;BME280;43914;57.680;11.982;2024-03-17T11:07:40;101735.94;;;1.95;89.32
54872;BME280;43914;57.680;11.982;2024-03-17T11:20:33;101725.98;;;2.24;85.24
54872;BME280;43914;57.680;11.982;2024-03-17T11:23:00;101726.32;;;2.35;86.69
54872;BME280;43914;57.680;11.982;2024-03-17T11:31:02;101732.35;;;2.45;78.55
54872;BME280;43914;57.680;11.982;2024-03-17T11:33:51;101737.65;;;2.51;80.31
54872;BME280;43914;57.680;11.982;2024-03-17T11:41:39;101732.19;;;2.81;79.90
54872;BME280;43914;57.680;11.982;2024-03-17T11:49:25;101737.39;;;2.85;67.70
54872;BME280;43914;57.680;11.982;2024-03-17T11:51:53;101734.65;;;2.81;67.12
54872;BME280;43914;57.680;11.982;2024-03-17T11:54:21;101730.90;;;2.79;67.87
54872;BME280;43914;57.680;11.982;2024-03-17T11:56:49;101734.36;;;2.83;70.81
54872;BME280;43914;57.680;11.982;2024-03-17T11:59:16;101731.09;;;2.91;73.76
54872;BME280;43914;57.680;11.982;2024-03-17T12:01:48;101730.27;;;2.98;72.21
54872;BME280;43914;57.680;11.982;2024-03-17T12:04:15;101726.48;;;2.99;70.95
54872;BME280;43914;57.680;11.982;2024-03-17T12:06:48;101723.09;;;2.92;66.02
54872;BME280;43914;57.680;11.982;2024-03-17T12:09:19;101718.98;;;2.85;67.64
54872;BME280;43914;57.680;11.982;2024-03-17T12:11:58;101719.59;;;2.86;68.56
54872;BME280;43914;57.680;11.982;2024-03-17T12:14:24;101721.02;;;2.91;69.04
54872;BME280;43914;57.680;11.982;2024-03-17T12:16:55;101723.27;;;3.00;67.12
54872;BME280;43914;57.680;11.982;2024-03-17T12:19:22;101723.82;;;3.04;65.33
54872;BME280;43914;57.680;11.982;2024-03-17T12:21:50;101727.86;;;3.07;65.01
54872;BME280;43914;57.680;11.982;2024-03-17T12:26:43;101722.33;;;3.25;66.22
54872;BME280;43914;57.680;11.982;2024-03-17T12:29:28;101717.73;;;3.35;67.27
54872;BME280;43914;57.680;11.982;2024-03-17T12:32:16;101715.28;;;3.51;68.52
54872;BME280;43914;57.680;11.982;2024-03-17T12:34:44;101712.73;;;3.59;64.23
54872;BME280;43914;57.680;11.982;2024-03-17T12:37:16;101706.34;;;3.62;63.40
54872;BME280;43914;57.680;11.982;2024-03-17T12:39:43;101704.08;;;3.71;63.84
54872;BME280;43914;57.680;11.982;2024-03-17T12:42:15;101704.52;;;3.82;64.36
54872;BME280;43914;57.680;11.982;2024-03-17T12:44:53;101700.16;;;3.97;64.30
54872;BME280;43914;57.680;11.982;2024-03-17T12:49:52;101697.18;;;4.16;64.76
54872;BME280;43914;57.680;11.982;2024-03-17T12:54:45;101695.04;;;4.41;62.09
54872;BME280;43914;57.680;11.982;2024-03-17T12:57:20;101694.69;;;4.52;61.84
54872;BME280;43914;57.680;11.982;2024-03-17T13:00:20;101694.61;;;4.78;62.45
54872;BME280;43914;57.680;11.982;2024-03-17T13:02:57;101689.34;;;4.82;58.15
54872;BME280;43914;57.680;11.982;2024-03-17T13:05:23;101687.73;;;4.82;56.97
54872;BME280;43914;57.680;11.982;2024-03-17T13:07:51;101680.77;;;4.96;57.51
54872;BME280;43914;57.680;11.982;2024-03-17T13:10:18;101674.91;;;5.09;57.52
54872;BME280;43914;57.680;11.982;2024-03-17T13:12:45;101669.51;;;5.24;56.48
54872;BME280;43914;57.680;11.982;2024-03-17T13:15:15;101676.41;;;5.37;56.01
54872;BME280;43914;57.680;11.982;2024-03-17T13:17:42;101679.84;;;5.45;53.87
54872;BME280;43914;57.680;11.982;2024-03-17T13:20:15;101679.80;;;5.45;52.65
54872;BME280;43914;57.680;11.982;2024-03-17T13:22:41;101676.59;;;5.41;51.55